createdAt,value
2019-01-19T00:02:46.936Z,8.90
2019-01-19T00:08:32.090Z,9.53
2019-01-19T00:14:17.832Z,8.07
2019-01-19T00:20:17.972Z,9.10
2019-01-19T00:25:52.927Z,8.77
2019-01-19T00:31:06.992Z,9.10
2019-01-19T00:36:35.596Z,8.20
2019-01-19T00:42:16.590Z,9.00
2019-01-19T00:48:06.347Z,7.40
2019-01-19T00:53:22.190Z,8.07
2019-01-19T00:58:53.043Z,8.20
2019-01-19T01:04:49.705Z,8.47
2019-01-19T01:10:15.850Z,8.77
2019-01-19T01:15:38.722Z,8.80
2019-01-19T01:20:47.963Z,9.13
2019-01-19T01:26:36.642Z,8.80
2019-01-19T01:31:47.508Z,8.27
2019-01-19T01:37:20.126Z,8.03
2019-01-19T01:42:58.734Z,8.70
2019-01-19T01:48:39.087Z,9.27
2019-01-19T01:53:54.436Z,9.03
2019-01-19T01:59:47.823Z,9.30
2019-01-19T02:05:31.170Z,9.80
2019-01-19T02:11:22.402Z,8.70
2019-01-19T02:17:21.316Z,9.00
2019-01-19T02:22:53.811Z,8.93
2019-01-19T02:28:12.074Z,9.40
2019-01-19T02:33:39.284Z,8.87
2019-01-19T02:39:26.281Z,9.90
2019-01-19T02:44:39.737Z,10.40
2019-01-19T02:50:35.261Z,10.10
2019-01-19T02:56:06.835Z,10.30
2019-01-19T03:01:52.305Z,11.03
2019-01-19T03:07:37.017Z,8.60
2019-01-19T03:13:16.472Z,8.93
2019-01-19T03:18:58.357Z,9.30
2019-01-19T03:24:28.731Z,9.47
2019-01-19T03:29:52.215Z,9.80
2019-01-19T03:35:51.976Z,9.33
2019-01-19T03:41:51.164Z,9.53
2019-01-19T03:47:38.816Z,9.50
2019-01-19T03:53:23.094Z,9.73
2019-01-19T03:59:14.324Z,9.17
2019-01-19T04:04:56.838Z,9.90
2019-01-19T04:10:19.001Z,10.47
2019-01-19T04:15:53.324Z,9.53
2019-01-19T04:21:50.928Z,10.00
2019-01-19T04:26:55.958Z,9.03
2019-01-19T04:31:59.693Z,10.07
2019-01-19T04:37:03.310Z,9.90
2019-01-19T04:42:07.220Z,10.33
2019-01-19T04:47:10.588Z,10.30
2019-01-19T04:52:14.099Z,9.20
2019-01-19T04:57:17.533Z,8.33
2019-01-19T05:02:23.924Z,8.50
2019-01-19T05:07:27.472Z,8.50
2019-01-19T05:12:30.887Z,9.10
2019-01-19T05:17:34.501Z,9.47
2019-01-19T05:22:43.712Z,10.37
2019-01-19T05:27:50.836Z,10.77
2019-01-19T05:32:54.218Z,11.00
2019-01-19T05:37:57.644Z,9.67
2019-01-19T05:43:01.089Z,9.20
2019-01-19T05:48:04.247Z,9.60
2019-01-19T05:53:07.669Z,9.80
2019-01-19T05:58:11.065Z,8.60
2019-01-19T06:03:23.758Z,8.93
2019-01-19T06:08:29.829Z,9.20
2019-01-19T06:13:33.344Z,8.97
2019-01-19T06:18:40.081Z,9.50
2019-01-19T06:23:43.391Z,9.60
2019-01-19T06:28:49.726Z,9.60
2019-01-19T06:33:53.243Z,9.30
2019-01-19T06:38:57.432Z,9.70
2019-01-19T06:44:00.884Z,9.50
2019-01-19T06:49:07.087Z,13.30
2019-01-19T06:54:11.352Z,13.53
2019-01-19T06:59:17.467Z,14.80
2019-01-19T07:04:19.801Z,15.97
2019-01-19T07:09:23.100Z,15.47
2019-01-19T07:14:26.420Z,16.17
2019-01-19T07:19:29.894Z,13.33
2019-01-19T07:24:33.410Z,14.80
2019-01-19T07:29:39.688Z,13.03
2019-01-19T07:34:42.997Z,13.10
2019-01-19T07:39:48.253Z,13.27
2019-01-19T07:44:51.576Z,12.40
2019-01-19T07:50:04.537Z,12.77
2019-01-19T07:55:09.230Z,13.90
2019-01-19T08:00:17.778Z,14.00
2019-01-19T08:05:21.292Z,15.63
2019-01-19T08:10:24.500Z,14.73
2019-01-19T08:15:29.477Z,14.63
2019-01-19T08:20:32.547Z,14.87
2019-01-19T08:25:36.068Z,14.80
2019-01-19T08:30:39.468Z,17.20
2019-01-19T08:35:43.867Z,15.03
2019-01-19T08:40:47.334Z,16.43
2019-01-19T08:45:50.984Z,15.43
2019-01-19T08:50:54.466Z,17.23
2019-01-19T08:55:57.902Z,16.80
2019-01-19T09:01:01.154Z,16.27
2019-01-19T09:06:04.636Z,17.20
2019-01-19T09:11:11.117Z,17.20
2019-01-19T09:16:16.556Z,17.57
2019-01-19T09:21:19.777Z,17.97
2019-01-19T09:26:23.041Z,17.17
2019-01-19T09:31:26.581Z,18.37
2019-01-19T09:36:29.933Z,18.90
2019-01-19T09:41:33.231Z,18.30
2019-01-19T09:46:36.359Z,19.30
2019-01-19T09:51:39.157Z,17.83
2019-01-19T09:56:41.976Z,19.23
2019-01-19T10:01:44.843Z,19.90
2019-01-19T10:06:51.218Z,18.17
2019-01-19T10:11:54.417Z,19.00
2019-01-19T10:17:00.677Z,19.10
2019-01-19T10:22:04.506Z,17.10
2019-01-19T10:27:07.476Z,18.50
2019-01-19T10:32:11.016Z,21.37
2019-01-19T10:37:15.841Z,18.00
2019-01-19T10:42:18.651Z,17.90
2019-01-19T10:47:24.666Z,16.70
2019-01-19T10:52:27.549Z,16.80
2019-01-19T10:57:30.367Z,17.20
2019-01-19T11:02:33.302Z,16.83
2019-01-19T11:07:36.506Z,16.63
2019-01-19T11:12:41.843Z,16.40
2019-01-19T11:17:50.064Z,16.50
2019-01-19T11:22:53.047Z,14.53
2019-01-19T11:27:56.340Z,14.90
2019-01-19T11:33:05.686Z,13.80
2019-01-19T11:38:12.041Z,14.40
2019-01-19T11:43:14.254Z,14.40
2019-01-19T11:48:17.574Z,12.00
2019-01-19T11:53:21.136Z,10.13
2019-01-19T11:58:23.998Z,10.87
2019-01-19T12:03:27.343Z,10.30
2019-01-19T12:08:30.191Z,10.97
2019-01-19T12:13:36.908Z,9.97
2019-01-19T12:18:42.884Z,9.60
2019-01-19T12:23:46.101Z,10.33
2019-01-19T12:28:52.092Z,9.03
2019-01-19T12:33:55.587Z,8.63
2019-01-19T12:38:58.811Z,9.33
2019-01-19T12:44:02.405Z,9.00
2019-01-19T12:49:06.101Z,8.17
2019-01-19T12:54:09.821Z,7.47
2019-01-19T12:59:13.230Z,7.80
2019-01-19T13:04:16.646Z,8.10
2019-01-19T13:09:41.264Z,7.60
2019-01-19T13:15:10.063Z,7.97
2019-01-19T13:20:57.920Z,8.30
2019-01-19T13:26:54.990Z,8.20
2019-01-19T13:32:20.026Z,7.40
2019-01-19T13:37:58.230Z,7.63
2019-01-19T13:43:37.998Z,8.23
2019-01-19T13:49:06.500Z,9.17
2019-01-19T13:54:57.279Z,9.67
2019-01-19T14:00:49.692Z,10.00
2019-01-19T14:06:33.365Z,10.10
2019-01-19T14:12:23.668Z,10.70
2019-01-19T14:17:58.787Z,10.00
2019-01-19T14:23:27.921Z,11.77
2019-01-19T14:29:18.129Z,10.13
2019-01-19T14:35:06.395Z,12.00
2019-01-19T14:40:48.312Z,10.70
2019-01-19T14:46:30.331Z,12.10
2019-01-19T14:51:54.770Z,12.60
2019-01-19T14:57:54.467Z,14.77
2019-01-19T15:04:00.654Z,17.20
2019-01-19T15:09:37.654Z,16.53
2019-01-19T15:15:38.203Z,15.70
2019-01-19T15:21:01.792Z,22.17
2019-01-19T15:26:44.218Z,20.90
2019-01-19T15:32:17.841Z,16.93
2019-01-19T15:37:53.507Z,14.47
2019-01-19T15:43:30.564Z,14.77
2019-01-19T15:49:06.889Z,15.17
2019-01-19T15:54:48.120Z,13.43
2019-01-19T16:00:33.592Z,15.00
2019-01-19T16:06:13.352Z,12.87
2019-01-19T16:12:04.180Z,13.50
2019-01-19T16:17:58.235Z,11.50
2019-01-19T16:23:55.966Z,13.10
2019-01-19T16:29:30.408Z,16.27
2019-01-19T16:35:18.057Z,13.73
2019-01-19T16:41:20.963Z,13.33
2019-01-19T16:47:17.296Z,12.43
2019-01-19T16:53:05.168Z,12.97
2019-01-19T16:59:05.211Z,15.33
2019-01-19T17:04:44.465Z,12.53
2019-01-19T17:10:21.157Z,14.40
2019-01-19T17:15:52.424Z,13.10
2019-01-19T17:21:46.410Z,12.87
2019-01-19T17:27:16.148Z,11.80
2019-01-19T17:32:54.527Z,14.93
2019-01-19T17:38:27.590Z,14.03
2019-01-19T17:44:20.258Z,15.03
2019-01-19T17:50:26.544Z,15.57
2019-01-19T17:56:13.578Z,15.30
2019-01-19T18:01:44.956Z,15.87
2019-01-19T18:07:30.547Z,15.67
2019-01-19T18:13:04.274Z,15.30
2019-01-19T18:18:39.635Z,13.93
2019-01-19T18:24:14.587Z,16.60
2019-01-19T18:29:43.807Z,17.70
2019-01-19T18:35:36.323Z,16.80
2019-01-19T18:41:26.085Z,16.53
2019-01-19T18:46:57.434Z,18.73
2019-01-19T18:52:13.761Z,19.63
2019-01-19T18:58:00.399Z,19.33
2019-01-19T19:03:38.890Z,22.33
2019-01-19T19:09:37.521Z,21.37
2019-01-19T19:15:28.346Z,18.67
2019-01-19T19:21:10.518Z,16.97
2019-01-19T19:26:58.521Z,16.67
2019-01-19T19:32:24.470Z,15.70
2019-01-19T19:38:05.456Z,16.77
2019-01-19T19:43:34.264Z,17.63
2019-01-19T19:49:16.068Z,16.80
2019-01-19T19:54:19.340Z,16.57
2019-01-19T19:59:22.598Z,18.40
2019-01-19T20:04:25.917Z,17.50
2019-01-19T20:09:29.293Z,18.20
2019-01-19T20:14:32.695Z,19.10
2019-01-19T20:19:36.246Z,18.03
2019-01-19T20:24:39.414Z,19.90
2019-01-19T20:29:42.766Z,19.33
2019-01-19T20:34:46.074Z,20.83
2019-01-19T20:39:52.664Z,19.57
2019-01-19T20:44:56.004Z,18.70
2019-01-19T20:49:59.414Z,22.60
2019-01-19T20:55:06.381Z,22.10
2019-01-19T21:00:15.696Z,21.80
2019-01-19T21:05:19.352Z,18.37
2019-01-19T21:10:22.815Z,18.00
2019-01-19T21:15:31.933Z,19.73
2019-01-19T21:20:38.328Z,19.17
2019-01-19T21:25:44.572Z,19.37
2019-01-19T21:30:47.883Z,21.60
2019-01-19T21:35:51.401Z,25.17
2019-01-19T21:40:54.708Z,20.70
2019-01-19T21:45:58.226Z,20.40
2019-01-19T21:51:07.303Z,21.80
2019-01-19T21:56:10.885Z,21.20
2019-01-19T22:01:17.502Z,19.77
2019-01-19T22:06:20.712Z,18.60
2019-01-19T22:11:26.816Z,19.67
2019-01-19T22:16:30.199Z,20.43
2019-01-19T22:21:33.588Z,18.90
2019-01-19T22:26:37.545Z,20.00
2019-01-19T22:31:40.926Z,18.87
2019-01-19T22:36:44.360Z,18.47
2019-01-19T22:41:51.824Z,19.33
2019-01-19T22:46:55.871Z,19.50
2019-01-19T22:51:59.253Z,18.70
2019-01-19T22:57:02.942Z,17.90
2019-01-19T23:02:15.362Z,17.80
2019-01-19T23:07:19.045Z,17.60
2019-01-19T23:12:29.974Z,18.23
2019-01-19T23:17:33.345Z,17.03
2019-01-19T23:22:37.064Z,18.83
2019-01-19T23:27:40.479Z,19.37
2019-01-19T23:32:43.834Z,18.90
2019-01-19T23:37:47.303Z,20.80
2019-01-19T23:42:50.738Z,18.93
2019-01-19T23:47:54.064Z,18.90
2019-01-19T23:52:57.255Z,20.17
2019-01-19T23:58:02.082Z,19.60
